Time;durP1;ratioP1;P1;durP2;ratioP2;P2;SDS_P1;SDS_P2;PMS_P1;PMS_P2;Temp;Humidity;BMP_temperature;BMP_pressure;BME280_temperature;BME280_humidity;BME280_pressure;Samples;Min_cycle;Max_cycle;Signal;HPM_P1;HPM_P2
2021/05/03 00:00:15;;;;;;;5.40;4.35;;;5.70;99.90;;;;;;5071884;28;20622;-68
2021/05/03 00:02:42;;;;;;;5.63;5.03;;;5.60;99.90;;;;;;5072266;28;20220;-68
2021/05/03 00:05:19;;;;;;;4.80;4.35;;;5.50;99.90;;;;;;5072105;28;20201;-68
2021/05/03 00:07:46;;;;;;;5.43;4.43;;;5.50;99.90;;;;;;5072278;28;20204;-67
2021/05/03 00:10:12;;;;;;;4.20;3.80;;;5.40;99.90;;;;;;5072011;28;20377;-68
2021/05/03 00:12:39;;;;;;;7.78;4.20;;;5.30;99.90;;;;;;5072477;28;20208;-68
2021/05/03 00:15:06;;;;;;;4.90;4.38;;;5.20;99.90;;;;;;5072194;28;20208;-68
2021/05/03 00:17:32;;;;;;;5.25;4.47;;;5.20;99.90;;;;;;5072351;28;20729;-68
2021/05/03 00:19:59;;;;;;;4.60;4.07;;;5.10;99.90;;;;;;5070743;28;20266;-68
2021/05/03 00:22:25;;;;;;;4.85;4.03;;;5.10;99.90;;;;;;5070531;28;20228;-68
2021/05/03 00:24:52;;;;;;;4.97;4.47;;;5.00;99.90;;;;;;5072167;28;20203;-68
2021/05/03 00:27:18;;;;;;;7.43;5.18;;;4.90;99.90;;;;;;5072400;28;20238;-68
2021/05/03 00:29:44;;;;;;;5.88;5.28;;;4.90;99.90;;;;;;5073033;28;20232;-68
2021/05/03 00:32:10;;;;;;;8.75;5.97;;;4.80;99.90;;;;;;5072030;28;20207;-68
2021/05/03 00:34:37;;;;;;;5.72;5.18;;;4.90;99.90;;;;;;5073042;28;20200;-68
2021/05/03 00:37:03;;;;;;;6.10;5.50;;;4.90;99.90;;;;;;5071927;28;20204;-68
2021/05/03 00:39:29;;;;;;;6.10;5.50;;;4.90;99.90;;;;;;5071693;28;20239;-68
2021/05/03 00:41:56;;;;;;;6.20;5.18;;;4.80;99.90;;;;;;5071488;28;20231;-68
2021/05/03 00:44:24;;;;;;;5.43;4.93;;;4.80;99.90;;;;;;5071421;28;20212;-67
2021/05/03 00:46:52;;;;;;;5.93;4.95;;;4.80;99.90;;;;;;5071079;28;20254;-68
2021/05/03 00:49:18;;;;;;;5.25;4.75;;;4.80;99.90;;;;;;5070603;28;20648;-67
2021/05/03 00:51:44;;;;;;;5.78;5.10;;;4.80;99.90;;;;;;5070978;28;20207;-67
2021/05/03 00:54:11;;;;;;;6.38;4.75;;;4.70;99.90;;;;;;5071166;28;20234;-68
2021/05/03 00:56:37;;;;;;;6.10;5.50;;;4.70;99.90;;;;;;5071548;28;20197;-68
2021/05/03 00:59:05;;;;;;;9.25;5.75;;;4.60;99.90;;;;;;5071289;28;20224;-68
2021/05/03 01:01:31;;;;;;;6.03;5.07;;;4.60;99.90;;;;;;5069383;28;20602;-67
2021/05/03 01:03:57;;;;;;;6.50;5.68;;;4.50;99.90;;;;;;5071152;28;20207;-66
2021/05/03 01:06:24;;;;;;;6.10;5.50;;;4.60;99.90;;;;;;5070932;28;20624;-68
2021/05/03 01:08:50;;;;;;;5.95;5.35;;;4.60;99.90;;;;;;5071199;28;20200;-68
2021/05/03 01:11:16;;;;;;;7.68;6.03;;;4.60;99.90;;;;;;5070284;28;20216;-68
2021/05/03 01:13:42;;;;;;;6.50;5.68;;;4.60;99.90;;;;;;5071233;28;20205;-68
2021/05/03 01:16:09;;;;;;;8.48;6.10;;;4.70;99.90;;;;;;5071196;28;20200;-67
2021/05/03 01:18:37;;;;;;;7.28;6.03;;;4.70;99.90;;;;;;5070912;28;20246;-67
2021/05/03 01:21:04;;;;;;;6.85;5.57;;;4.70;99.90;;;;;;5070404;28;20208;-68
2021/05/03 01:23:31;;;;;;;6.00;5.47;;;4.70;99.90;;;;;;5070694;28;20230;-67
2021/05/03 01:25:57;;;;;;;6.45;5.75;;;4.70;99.90;;;;;;5070758;28;20707;-67
2021/05/03 01:28:24;;;;;;;6.80;6.00;;;4.70;99.90;;;;;;5070492;28;20557;-67
2021/05/03 01:30:50;;;;;;;6.32;5.20;;;4.60;99.90;;;;;;5070129;28;20225;-68
2021/05/03 01:33:17;;;;;;;6.57;5.50;;;4.60;99.90;;;;;;5070504;28;20231;-68
2021/05/03 01:35:45;;;;;;;6.55;5.70;;;4.50;99.90;;;;;;5070509;28;20204;-66
2021/05/03 01:38:14;;;;;;;7.05;6.07;;;4.50;99.90;;;;;;5070262;28;20646;-67
2021/05/03 01:40:42;;;;;;;8.73;6.38;;;4.40;99.90;;;;;;5070032;28;20667;-67
2021/05/03 01:43:13;;;;;;;8.50;6.68;;;4.40;99.90;;;;;;5070159;28;20224;-67
2021/05/03 01:45:41;;;;;;;7.57;6.30;;;4.30;99.90;;;;;;5070514;28;20236;-68
2021/05/03 01:48:10;;;;;;;10.50;6.80;;;4.30;99.90;;;;;;5070072;28;20216;-67
2021/05/03 01:50:37;;;;;;;7.30;6.40;;;4.30;99.90;;;;;;5069973;28;20228;-68
2021/05/03 01:53:05;;;;;;;7.78;6.97;;;4.40;99.90;;;;;;5069923;28;20200;-67
2021/05/03 01:55:33;;;;;;;9.13;6.75;;;4.30;99.90;;;;;;5070201;28;20570;-68
2021/05/03 01:58:00;;;;;;;6.75;6.05;;;4.20;99.90;;;;;;5069979;28;20200;-67
2021/05/03 02:00:26;;;;;;;7.35;6.65;;;4.20;99.90;;;;;;5069451;28;20245;-66
2021/05/03 02:02:52;;;;;;;8.57;6.72;;;4.10;99.90;;;;;;5070017;28;20220;-67
2021/05/03 02:05:20;;;;;;;8.57;7.45;;;4.00;99.90;;;;;;5069680;28;20204;-67
2021/05/03 02:07:46;;;;;;;6.38;5.75;;;4.00;99.90;;;;;;5069918;28;20209;-66
2021/05/03 02:10:14;;;;;;;7.97;7.18;;;4.00;99.90;;;;;;5069208;28;20239;-67
2021/05/03 02:12:41;;;;;;;8.85;7.40;;;3.90;99.90;;;;;;5069453;28;20204;-68
2021/05/03 02:15:08;;;;;;;10.18;6.55;;;3.90;99.90;;;;;;5069563;28;20204;-68
2021/05/03 02:17:35;;;;;;;8.60;7.53;;;3.80;99.90;;;;;;5070011;28;20207;-67
2021/05/03 02:20:01;;;;;;;7.78;7.05;;;3.90;99.90;;;;;;5069858;28;20255;-68
2021/05/03 02:22:27;;;;;;;9.20;7.43;;;3.90;99.90;;;;;;5069054;28;20305;-68
2021/05/03 02:24:53;;;;;;;7.80;7.03;;;3.90;99.90;;;;;;5069858;28;20207;-68
2021/05/03 02:27:19;;;;;;;7.78;7.00;;;3.90;99.90;;;;;;5069008;28;20209;-68
2021/05/03 02:29:47;;;;;;;10.55;8.30;;;3.90;99.90;;;;;;5069615;28;20226;-68
2021/05/03 02:32:13;;;;;;;11.98;8.30;;;3.90;99.90;;;;;;5068683;28;20646;-67
2021/05/03 02:34:39;;;;;;;8.50;7.70;;;3.90;99.90;;;;;;5069646;28;20574;-67
2021/05/03 02:37:05;;;;;;;10.63;8.30;;;4.00;99.90;;;;;;5069375;28;20211;-68
2021/05/03 02:39:32;;;;;;;9.73;8.18;;;4.00;99.90;;;;;;5069332;28;20270;-67
2021/05/03 02:41:58;;;;;;;9.68;7.90;;;4.00;99.90;;;;;;5069037;28;20618;-68
2021/05/03 02:44:24;;;;;;;9.13;8.23;;;3.90;99.90;;;;;;5069172;28;20622;-68
2021/05/03 02:46:52;;;;;;;8.57;7.80;;;3.90;99.90;;;;;;5069399;28;20219;-68
2021/05/03 02:49:18;;;;;;;8.20;7.30;;;3.90;99.90;;;;;;5068988;28;20230;-69
2021/05/03 02:51:44;;;;;;;10.00;8.15;;;3.80;99.90;;;;;;5068846;28;20200;-68
2021/05/03 02:54:11;;;;;;;11.82;8.00;;;3.90;99.90;;;;;;5069077;28;20196;-68
2021/05/03 02:56:37;;;;;;;10.52;7.93;;;3.90;99.90;;;;;;5069213;28;20201;-68
2021/05/03 02:59:04;;;;;;;9.73;7.97;;;3.90;99.90;;;;;;5069231;28;20221;-68
2021/05/03 03:01:30;;;;;;;8.52;7.72;;;3.80;99.90;;;;;;5068279;28;20200;-68
2021/05/03 03:03:57;;;;;;;8.75;7.82;;;3.90;99.90;;;;;;5069208;28;20201;-68
2021/05/03 03:06:23;;;;;;;10.68;8.35;;;3.80;99.90;;;;;;5068924;28;20209;-68
2021/05/03 03:08:49;;;;;;;7.90;7.10;;;3.80;99.90;;;;;;5068908;28;20200;-68
2021/05/03 03:11:16;;;;;;;8.73;7.75;;;3.80;99.90;;;;;;5068301;28;20204;-68
2021/05/03 03:13:42;;;;;;;8.90;8.00;;;3.80;99.90;;;;;;5068995;28;20257;-68
2021/05/03 03:16:09;;;;;;;10.15;7.88;;;3.80;99.90;;;;;;5068821;28;20204;-68
2021/05/03 03:18:35;;;;;;;10.50;8.40;;;3.70;99.90;;;;;;5068654;28;20704;-68
2021/05/03 03:21:03;;;;;;;9.73;8.32;;;3.70;99.90;;;;;;5068558;28;20196;-68
2021/05/03 03:23:29;;;;;;;11.30;9.02;;;3.80;99.90;;;;;;5068748;28;20228;-68
2021/05/03 03:25:56;;;;;;;8.73;7.82;;;3.80;99.90;;;;;;5071176;28;20663;-68
2021/05/03 03:28:22;;;;;;;9.43;8.00;;;3.70;99.90;;;;;;5072989;28;20215;-68
2021/05/03 03:30:48;;;;;;;9.82;8.80;;;3.70;99.90;;;;;;5072183;28;20235;-67
2021/05/03 03:33:14;;;;;;;9.32;8.25;;;3.80;99.90;;;;;;5072567;28;20196;-68
2021/05/03 03:35:40;;;;;;;10.35;8.25;;;3.80;99.90;;;;;;5072093;28;20196;-68
2021/05/03 03:38:07;;;;;;;11.38;8.65;;;3.80;99.90;;;;;;5071429;28;20679;-68
2021/05/03 03:40:34;;;;;;;9.70;8.43;;;3.80;99.90;;;;;;5069833;28;20261;-69
2021/05/03 03:43:00;;;;;;;9.65;8.38;;;3.80;99.90;;;;;;5070579;28;20224;-69
2021/05/03 03:45:26;;;;;;;11.07;8.35;;;3.90;99.90;;;;;;5070492;28;20204;-70
2021/05/03 03:47:52;;;;;;;10.77;8.70;;;3.90;99.90;;;;;;5070619;28;20582;-69
2021/05/03 03:50:19;;;;;;;9.65;8.65;;;4.00;99.90;;;;;;5070096;28;20244;-69
2021/05/03 03:52:45;;;;;;;8.80;7.85;;;4.00;99.90;;;;;;5070341;28;20242;-69
2021/05/03 03:55:12;;;;;;;10.15;7.93;;;4.10;99.90;;;;;;5071632;28;20209;-69
2021/05/03 03:57:39;;;;;;;9.00;7.78;;;4.10;99.90;;;;;;5072811;28;20600;-68
2021/05/03 04:00:08;;;;;;;9.90;7.68;;;4.00;99.90;;;;;;5072169;28;20220;-68
2021/05/03 04:02:34;;;;;;;8.77;7.88;;;4.10;99.90;;;;;;5073926;28;20224;-70
2021/05/03 04:05:10;;;;;;;9.55;8.15;;;4.10;99.90;;;;;;5073874;28;20290;-69
2021/05/03 04:07:41;;;;;;;8.93;7.97;;;4.10;99.90;;;;;;5072314;28;20300;-70
2021/05/03 04:10:18;;;;;;;9.38;8.00;;;4.10;99.90;;;;;;5072196;28;20220;-69
2021/05/03 04:13:01;;;;;;;10.20;8.60;;;4.10;99.90;;;;;;5072391;28;20243;-69
2021/05/03 04:21:11;;;;;;;8.65;7.82;;;4.10;99.90;;;;;;5071988;28;20295;-69
2021/05/03 04:26:24;;;;;;;9.23;7.85;;;4.10;99.90;;;;;;5072212;28;20204;-68
2021/05/03 04:28:54;;;;;;;10.73;8.65;;;4.00;99.90;;;;;;5068262;28;20205;-68
2021/05/03 04:31:21;;;;;;;8.80;7.90;;;4.00;99.90;;;;;;5070598;28;20200;-68
2021/05/03 04:33:47;;;;;;;9.43;7.65;;;4.00;99.90;;;;;;5067177;28;20197;-69
2021/05/03 04:36:14;;;;;;;9.40;8.48;;;3.90;99.90;;;;;;5070350;28;20223;-69
2021/05/03 04:38:40;;;;;;;10.38;8.88;;;3.90;99.90;;;;;;5070304;28;20682;-69
2021/05/03 04:41:08;;;;;;;10.38;8.60;;;4.00;99.90;;;;;;5164541;22;20232;-72
2021/05/03 04:43:35;;;;;;;10.73;8.95;;;4.00;99.90;;;;;;5071330;28;20735;-71
2021/05/03 04:46:02;;;;;;;10.70;9.27;;;4.00;99.90;;;;;;5071811;28;20206;-71
2021/05/03 04:48:34;;;;;;;8.88;8.00;;;4.10;99.90;;;;;;5071197;28;20246;-71
2021/05/03 04:51:01;;;;;;;8.43;7.45;;;4.00;99.90;;;;;;5051330;28;20201;-71
2021/05/03 04:53:27;;;;;;;10.65;7.70;;;4.00;99.90;;;;;;5050716;28;20292;-71
2021/05/03 04:55:54;;;;;;;10.75;8.80;;;4.10;99.90;;;;;;5051216;28;20205;-70
2021/05/03 04:58:20;;;;;;;9.02;8.10;;;4.10;99.90;;;;;;5051221;28;20209;-71
2021/05/03 05:00:47;;;;;;;13.55;7.93;;;4.10;99.90;;;;;;5050395;28;20287;-71
2021/05/03 05:03:14;;;;;;;10.77;8.00;;;4.10;99.90;;;;;;5051030;28;20251;-71
2021/05/03 05:05:41;;;;;;;9.50;8.60;;;4.20;99.90;;;;;;5050947;28;20201;-71
2021/05/03 05:08:08;;;;;;;8.73;7.30;;;4.20;99.90;;;;;;5051179;28;20291;-71
2021/05/03 05:10:34;;;;;;;8.45;7.55;;;4.20;99.90;;;;;;5050600;28;20219;-72
2021/05/03 05:13:00;;;;;;;11.07;7.82;;;4.20;99.90;;;;;;5050536;28;20676;-73
2021/05/03 05:15:27;;;;;;;10.10;7.90;;;4.30;99.90;;;;;;5050509;28;20204;-71
2021/05/03 05:17:53;;;;;;;8.10;7.22;;;4.30;99.90;;;;;;5050773;28;20619;-70
2021/05/03 05:20:21;;;;;;;8.02;7.22;;;4.30;99.90;;;;;;5050287;28;20240;-73
2021/05/03 05:22:47;;;;;;;11.27;8.52;;;4.30;99.90;;;;;;5051080;28;20217;-72
2021/05/03 05:25:13;;;;;;;8.35;7.50;;;4.40;99.90;;;;;;5050852;28;20201;-71
2021/05/03 05:27:40;;;;;;;10.43;7.60;;;4.30;99.90;;;;;;5050554;28;20204;-71
2021/05/03 05:30:08;;;;;;;8.15;7.22;;;4.40;99.90;;;;;;5050346;28;20229;-72
2021/05/03 05:32:34;;;;;;;9.45;8.15;;;4.40;99.90;;;;;;5050724;28;20284;-71
2021/05/03 05:35:01;;;;;;;9.63;8.68;;;4.50;99.90;;;;;;5050436;28;20208;-72
2021/05/03 05:37:28;;;;;;;9.85;7.70;;;4.60;99.90;;;;;;5050538;28;20552;-71
2021/05/03 05:39:54;;;;;;;10.82;8.70;;;4.60;99.90;;;;;;5050437;28;20240;-71
2021/05/03 05:42:21;;;;;;;8.02;7.22;;;4.70;99.90;;;;;;5050146;28;20630;-72
2021/05/03 05:44:47;;;;;;;9.25;7.40;;;4.80;99.90;;;;;;5050524;28;20259;-72
2021/05/03 05:47:13;;;;;;;13.88;8.90;;;4.90;99.90;;;;;;5050128;28;20205;-71
2021/05/03 05:49:39;;;;;;;14.82;10.77;;;5.00;99.90;;;;;;5049974;28;20225;-71
2021/05/03 05:52:06;;;;;;;12.70;9.80;;;5.00;99.90;;;;;;5050139;28;20200;-73
2021/05/03 05:54:33;;;;;;;9.07;7.80;;;5.10;99.90;;;;;;5049842;28;20201;-72
2021/05/03 05:56:59;;;;;;;7.88;7.03;;;5.20;99.90;;;;;;5050021;28;20351;-72
2021/05/03 05:59:26;;;;;;;9.85;7.53;;;5.30;99.90;;;;;;5050323;28;20248;-72
2021/05/03 06:01:52;;;;;;;8.77;7.47;;;5.40;99.90;;;;;;5049525;28;20596;-73
2021/05/03 06:04:18;;;;;;;8.98;7.18;;;5.50;99.90;;;;;;5049809;28;20212;-72
2021/05/03 06:06:44;;;;;;;8.50;7.22;;;5.60;99.90;;;;;;5049792;28;20204;-73
2021/05/03 06:09:11;;;;;;;9.35;7.78;;;5.70;99.90;;;;;;5049817;28;20247;-72
2021/05/03 06:11:38;;;;;;;7.45;6.70;;;5.80;99.90;;;;;;5049473;28;20220;-72
2021/05/03 06:14:04;;;;;;;7.47;6.78;;;6.00;99.90;;;;;;5049639;28;20572;-72
2021/05/03 06:16:31;;;;;;;7.05;6.45;;;6.00;99.90;;;;;;5049842;28;20581;-71
2021/05/03 06:18:57;;;;;;;8.55;6.68;;;6.10;99.90;;;;;;5049601;28;20217;-74
2021/05/03 06:21:23;;;;;;;7.35;6.40;;;6.20;99.90;;;;;;5048628;28;20718;-73
2021/05/03 06:23:49;;;;;;;8.30;6.82;;;6.30;99.90;;;;;;5049723;28;20232;-73
2021/05/03 06:26:16;;;;;;;8.07;6.55;;;6.30;99.90;;;;;;5043428;28;20267;-72
2021/05/03 06:28:43;;;;;;;7.88;6.05;;;6.40;99.90;;;;;;5048694;28;20216;-72
2021/05/03 06:31:09;;;;;;;6.53;5.65;;;6.50;99.90;;;;;;5049180;28;20550;-71
2021/05/03 06:33:35;;;;;;;7.75;6.60;;;6.60;99.90;;;;;;5049493;28;20710;-72
2021/05/03 06:36:02;;;;;;;7.97;6.45;;;6.80;99.90;;;;;;5049618;28;20208;-71
2021/05/03 06:38:28;;;;;;;8.30;6.40;;;6.80;99.90;;;;;;5045997;28;20204;-73
2021/05/03 06:40:55;;;;;;;7.25;6.55;;;6.90;99.90;;;;;;5039558;28;20228;-72
2021/05/03 06:43:21;;;;;;;8.02;6.60;;;7.00;99.90;;;;;;5046463;28;20228;-71
2021/05/03 06:45:48;;;;;;;7.88;6.93;;;7.10;99.90;;;;;;5048296;28;20556;-72
2021/05/03 06:48:14;;;;;;;8.20;6.47;;;7.20;99.90;;;;;;5048150;28;20201;-72
2021/05/03 06:50:43;;;;;;;7.57;6.25;;;7.30;99.90;;;;;;5046778;28;21179;-71
2021/05/03 06:53:10;;;;;;;8.40;6.65;;;7.40;99.90;;;;;;5051663;28;20208;-72
2021/05/03 06:55:36;;;;;;;6.82;6.13;;;7.50;99.90;;;;;;5042080;28;20205;-72
2021/05/03 06:58:03;;;;;;;7.45;6.00;;;7.60;99.90;;;;;;5040519;28;20233;-72
2021/05/03 07:00:29;;;;;;;6.40;5.80;;;7.80;99.90;;;;;;5043314;28;20384;-72
2021/05/03 07:02:56;;;;;;;6.93;6.05;;;8.00;99.90;;;;;;5043964;28;20475;-72
2021/05/03 07:05:22;;;;;;;6.97;5.50;;;8.10;99.90;;;;;;5047582;28;20208;-73
2021/05/03 07:07:49;;;;;;;6.75;5.53;;;8.30;99.90;;;;;;5045272;28;20215;-71
2021/05/03 07:10:15;;;;;;;5.72;5.22;;;8.50;99.90;;;;;;5047925;28;20779;-71
2021/05/03 07:12:44;;;;;;;5.63;5.00;;;8.70;99.90;;;;;;5048179;28;20485;-72
2021/05/03 07:15:12;;;;;;;6.50;4.70;;;8.80;99.90;;;;;;5048731;28;20619;-71
2021/05/03 07:17:39;;;;;;;6.70;5.15;;;8.90;99.90;;;;;;5045555;28;20229;-71
2021/05/03 07:20:08;;;;;;;7.05;4.93;;;9.10;99.90;;;;;;5048122;28;20217;-72
2021/05/03 07:22:35;;;;;;;5.75;4.90;;;9.30;99.90;;;;;;5047716;28;20225;-71
2021/05/03 07:25:01;;;;;;;5.78;4.90;;;9.40;99.40;;;;;;5048209;28;20584;-71
2021/05/03 07:27:28;;;;;;;7.15;5.38;;;9.60;97.90;;;;;;5045463;28;20577;-71
2021/05/03 07:29:54;;;;;;;5.20;4.70;;;9.60;97.50;;;;;;5048100;28;20225;-72
2021/05/03 07:32:20;;;;;;;5.57;4.80;;;9.70;98.40;;;;;;5048193;28;20197;-72
2021/05/03 07:34:46;;;;;;;5.75;4.95;;;9.80;98.70;;;;;;5047795;28;20212;-72
2021/05/03 07:37:14;;;;;;;5.10;4.60;;;9.90;97.90;;;;;;5045428;28;20680;-71
2021/05/03 07:39:42;;;;;;;6.88;5.40;;;9.90;97.90;;;;;;5048167;28;20225;-71
2021/05/03 07:42:08;;;;;;;5.95;4.82;;;10.00;96.50;;;;;;5048110;28;20216;-73
2021/05/03 07:44:34;;;;;;;5.90;5.30;;;9.90;96.20;;;;;;5047604;28;20208;-73
2021/05/03 07:47:01;;;;;;;6.70;5.65;;;9.90;96.90;;;;;;5045392;28;20279;-72
2021/05/03 07:49:27;;;;;;;5.22;4.75;;;9.90;96.10;;;;;;5048031;28;20221;-72
2021/05/03 07:51:53;;;;;;;5.68;5.18;;;10.00;95.20;;;;;;5048181;28;20220;-72
2021/05/03 07:54:20;;;;;;;6.07;5.57;;;10.00;95.90;;;;;;5047498;28;20255;-73
2021/05/03 07:56:47;;;;;;;5.32;4.82;;;10.20;95.40;;;;;;5045452;28;20208;-73
2021/05/03 07:59:13;;;;;;;6.03;5.43;;;10.30;96.00;;;;;;5047811;28;20751;-73
2021/05/03 08:01:39;;;;;;;5.78;5.18;;;10.40;95.70;;;;;;5047484;28;20684;-73
2021/05/03 08:04:06;;;;;;;4.95;4.55;;;10.60;95.50;;;;;;5047402;28;20221;-72
2021/05/03 08:06:32;;;;;;;6.78;5.22;;;10.70;95.60;;;;;;5044540;28;20205;-72
2021/05/03 08:09:03;;;;;;;5.57;5.03;;;10.70;93.70;;;;;;5047945;28;20221;-74
2021/05/03 08:11:30;;;;;;;7.63;5.00;;;10.90;94.00;;;;;;5048357;28;20205;-72
2021/05/03 08:13:57;;;;;;;7.85;5.25;;;11.20;94.00;;;;;;5051839;28;20211;-73
2021/05/03 08:16:24;;;;;;;4.93;4.47;;;11.50;94.70;;;;;;5049226;28;20315;-73
2021/05/03 08:18:51;;;;;;;6.05;5.07;;;11.70;92.70;;;;;;5051255;28;20201;-71
2021/05/03 08:21:17;;;;;;;6.22;5.10;;;11.70;92.40;;;;;;5051161;28;20259;-72
2021/05/03 08:23:43;;;;;;;4.90;4.50;;;11.50;91.40;;;;;;5050960;28;20221;-73
2021/05/03 08:26:10;;;;;;;5.78;4.53;;;11.40;92.20;;;;;;5040779;28;20197;-72
2021/05/03 08:28:39;;;;;;;4.65;4.25;;;11.40;92.30;;;;;;5050488;28;20616;-73
2021/05/03 08:31:06;;;;;;;4.60;4.10;;;11.40;92.20;;;;;;5050680;28;20205;-72
2021/05/03 08:33:33;;;;;;;4.53;4.13;;;11.40;92.60;;;;;;5051155;28;20200;-74
2021/05/03 08:35:59;;;;;;;6.60;4.72;;;11.50;92.70;;;;;;5049226;28;20266;-73
2021/05/03 08:38:25;;;;;;;4.45;4.00;;;11.60;91.80;;;;;;5049756;28;20243;-73
2021/05/03 08:40:53;;;;;;;4.38;3.97;;;11.40;91.00;;;;;;5050480;28;20264;-73
2021/05/03 08:43:19;;;;;;;4.63;4.22;;;11.30;91.40;;;;;;5050506;28;20481;-73
2021/05/03 08:45:48;;;;;;;5.18;4.68;;;11.10;92.10;;;;;;5050209;28;20241;-73
2021/05/03 08:48:19;;;;;;;4.68;4.20;;;11.10;91.00;;;;;;5048184;28;20205;-73
2021/05/03 08:50:53;;;;;;;6.05;5.55;;;11.00;92.10;;;;;;5050355;28;20243;-72
2021/05/03 08:53:24;;;;;;;6.80;5.95;;;10.80;93.20;;;;;;5050502;28;20273;-73
2021/05/03 08:55:51;;;;;;;7.85;6.32;;;10.80;95.60;;;;;;5049938;28;20209;-73
2021/05/03 08:58:17;;;;;;;7.65;6.00;;;10.90;96.80;;;;;;5047790;28;20627;-72
2021/05/03 09:00:43;;;;;;;7.22;6.50;;;11.00;97.60;;;;;;5049490;28;20232;-72
2021/05/03 09:03:12;;;;;;;7.28;6.57;;;11.00;97.20;;;;;;5050008;28;20229;-73
2021/05/03 09:05:41;;;;;;;9.10;6.07;;;11.00;97.20;;;;;;5049801;28;20296;-73
2021/05/03 09:08:08;;;;;;;7.15;6.45;;;11.10;96.80;;;;;;5047479;28;20286;-73
2021/05/03 09:10:34;;;;;;;7.65;6.40;;;11.20;97.40;;;;;;5048543;28;20229;-72
2021/05/03 09:13:10;;;;;;;9.93;6.72;;;11.00;96.80;;;;;;5050381;28;20746;-72
2021/05/03 09:15:36;;;;;;;7.20;6.50;;;11.00;97.00;;;;;;5049889;28;20209;-72
2021/05/03 09:18:03;;;;;;;7.47;6.80;;;11.00;96.80;;;;;;5047520;28;20201;-72
2021/05/03 09:20:30;;;;;;;8.63;6.15;;;11.00;96.60;;;;;;5049461;28;20221;-71
2021/05/03 09:22:59;;;;;;;9.10;6.25;;;11.20;96.90;;;;;;5048354;28;20221;-71
2021/05/03 09:25:30;;;;;;;7.55;6.80;;;11.50;96.90;;;;;;5048092;28;20209;-72
2021/05/03 09:28:05;;;;;;;6.40;5.80;;;11.80;96.20;;;;;;5047503;28;20201;-74
2021/05/03 09:30:34;;;;;;;7.30;6.60;;;12.00;95.50;;;;;;5029553;28;20731;-71
2021/05/03 09:33:19;;;;;;;6.82;6.15;;;12.20;95.40;;;;;;5038562;28;20719;-72
2021/05/03 09:35:49;;;;;;;6.70;6.10;;;12.40;94.70;;;;;;5048425;28;20270;-74
2021/05/03 09:38:32;;;;;;;4.18;3.78;;;12.60;93.80;;;;;;5045545;28;20254;-74
2021/05/03 09:41:09;;;;;;;3.45;3.15;;;12.50;87.50;;;;;;5048236;28;20291;-71
2021/05/03 09:43:36;;;;;;;3.97;3.53;;;12.60;83.00;;;;;;5050427;28;20315;-72
2021/05/03 09:46:32;;;;;;;3.67;3.38;;;12.60;83.80;;;;;;5047342;28;20201;-72
2021/05/03 09:49:01;;;;;;;3.45;3.15;;;12.70;84.30;;;;;;5032792;28;20270;-73
2021/05/03 09:51:35;;;;;;;3.58;3.28;;;12.70;81.30;;;;;;5047131;28;20254;-71
2021/05/03 09:54:03;;;;;;;4.68;3.38;;;12.90;81.20;;;;;;5048081;28;20200;-71
2021/05/03 09:56:55;;;;;;;3.80;3.50;;;13.00;82.00;;;;;;5045139;28;20213;-72
2021/05/03 09:59:33;;;;;;;4.43;3.55;;;13.10;83.10;;;;;;5049860;28;20892;-71
2021/05/03 10:02:06;;;;;;;3.28;2.97;;;12.90;82.40;;;;;;5048959;28;20223;-70
2021/05/03 10:04:33;;;;;;;3.20;2.90;;;12.80;86.80;;;;;;5048573;28;20201;-71
2021/05/03 10:06:59;;;;;;;5.35;3.50;;;12.50;82.10;;;;;;5046665;28;20204;-71
2021/05/03 10:09:27;;;;;;;3.70;3.40;;;12.40;83.30;;;;;;5049697;28;20229;-73
2021/05/03 10:11:53;;;;;;;4.20;3.80;;;12.10;83.80;;;;;;5048238;28;20635;-73
2021/05/03 10:14:20;;;;;;;3.20;2.90;;;11.90;80.40;;;;;;5049997;28;20197;-73
2021/05/03 10:16:47;;;;;;;3.47;3.17;;;11.90;81.50;;;;;;5047787;28;20204;-73
2021/05/03 10:19:18;;;;;;;3.58;3.20;;;11.80;84.30;;;;;;5049072;28;20597;-72
2021/05/03 10:21:45;;;;;;;3.95;3.28;;;11.80;81.80;;;;;;5049385;28;20201;-73
2021/05/03 10:24:13;;;;;;;3.80;3.50;;;12.10;84.40;;;;;;5047642;28;20225;-71
2021/05/03 10:26:40;;;;;;;3.90;3.55;;;12.70;82.70;;;;;;5045537;28;20459;-73
2021/05/03 10:29:07;;;;;;;6.60;3.50;;;13.10;82.30;;;;;;5051246;28;20221;-73
2021/05/03 10:31:59;;;;;;;3.08;2.88;;;13.30;77.80;;;;;;5048733;28;20207;-73
2021/05/03 10:34:47;;;;;;;4.00;3.37;;;13.40;76.30;;;;;;5048813;28;20208;-73
2021/05/03 10:37:50;;;;;;;3.30;3.00;;;13.80;78.50;;;;;;5045756;28;20459;-73
2021/05/03 10:40:44;;;;;;;4.40;2.83;;;14.20;75.80;;;;;;5047101;28;20493;-73
2021/05/03 10:43:14;;;;;;;3.33;2.90;;;14.60;73.40;;;;;;5012439;28;20533;-71
2021/05/03 10:45:44;;;;;;;3.50;3.20;;;14.60;73.10;;;;;;5045845;22;20504;-66
2021/05/03 10:48:35;;;;;;;5.13;3.07;;;14.90;72.80;;;;;;5006544;28;20461;-66
2021/05/03 10:51:05;;;;;;;3.27;2.90;;;15.70;77.20;;;;;;4988703;28;20469;-66
2021/05/03 10:53:35;;;;;;;4.20;3.47;;;16.80;76.30;;;;;;4989746;28;20462;-67
2021/05/03 10:56:05;;;;;;;3.53;3.23;;;17.80;74.10;;;;;;4989618;28;20462;-67
2021/05/03 10:58:31;;;;;;;5.50;3.50;;;18.20;68.30;;;;;;4989867;28;20946;-67
2021/05/03 11:01:01;;;;;;;4.00;3.20;;;17.90;70.50;;;;;;4988570;28;20517;-67
2021/05/03 11:04:07;;;;;;;2.80;2.60;;;17.10;69.00;;;;;;4989540;28;20489;-66
2021/05/03 11:07:03;;;;;;;4.20;3.40;;;16.30;70.80;;;;;;4989218;28;20473;-68
2021/05/03 11:09:35;;;;;;;3.30;3.00;;;15.60;71.60;;;;;;4983233;28;20493;-67
2021/05/03 11:12:04;;;;;;;3.70;3.07;;;15.30;69.80;;;;;;4988422;28;20466;-66
2021/05/03 11:14:32;;;;;;;3.40;3.10;;;14.90;70.20;;;;;;4989757;28;20469;-68
2021/05/03 11:17:06;;;;;;;3.10;2.70;;;14.40;71.80;;;;;;4984754;28;20475;-68
2021/05/03 11:22:21;;;;;;;3.40;3.10;;;14.00;70.90;;;;;;4985552;28;20453;-66
2021/05/03 11:24:53;;;;;;;3.10;2.80;;;13.80;71.20;;;;;;4988633;28;20473;-67
2021/05/03 11:27:33;;;;;;;3.03;2.70;;;14.10;74.30;;;;;;4987321;28;20458;-68
2021/05/03 11:30:03;;;;;;;3.53;3.23;;;14.80;77.00;;;;;;4988026;28;20482;-68
2021/05/03 11:32:32;;;;;;;3.10;2.80;;;15.60;73.30;;;;;;4988345;28;20521;-68
2021/05/03 11:35:05;;;;;;;3.57;3.20;;;15.70;72.90;;;;;;4987790;28;20874;-67
2021/05/03 11:37:42;;;;;;;3.40;3.10;;;15.70;73.30;;;;;;4993641;28;20897;-67
2021/05/03 11:40:22;;;;;;;4.63;3.53;;;15.70;73.40;;;;;;5007392;28;20538;-67
2021/05/03 11:43:05;;;;;;;3.40;3.10;;;15.70;74.20;;;;;;5007807;28;20485;-67
2021/05/03 11:45:31;;;;;;;3.07;2.63;;;15.50;70.60;;;;;;5008059;28;20477;-68
2021/05/03 11:47:59;;;;;;;2.83;2.60;;;15.30;71.70;;;;;;4994858;28;20470;-68
2021/05/03 11:50:27;;;;;;;3.43;3.10;;;15.20;70.10;;;;;;4988653;28;20560;-67
2021/05/03 11:52:54;;;;;;;3.10;2.70;;;14.70;69.20;;;;;;4991701;28;20837;-67
2021/05/03 11:55:22;;;;;;;3.00;2.80;;;15.10;69.60;;;;;;4986971;28;20510;-68
2021/05/03 11:57:49;;;;;;;2.90;2.63;;;15.90;65.70;;;;;;4998183;28;20462;-68
2021/05/03 12:00:18;;;;;;;2.83;2.63;;;16.60;70.50;;;;;;4993267;28;20928;-67
2021/05/03 12:02:44;;;;;;;2.27;2.07;;;17.20;69.20;;;;;;5008988;28;20961;-68
2021/05/03 12:05:16;;;;;;;3.17;2.37;;;17.30;69.60;;;;;;5009952;28;20469;-68
2021/05/03 12:07:43;;;;;;;2.50;2.30;;;16.80;67.00;;;;;;4991653;28;20989;-68
2021/05/03 12:10:12;;;;;;;2.57;2.37;;;16.40;66.90;;;;;;4990761;28;20541;-68
2021/05/03 12:12:40;;;;;;;2.63;2.43;;;16.00;63.00;;;;;;4991952;28;20498;-67
2021/05/03 12:15:09;;;;;;;2.87;2.60;;;15.30;62.20;;;;;;4990978;28;20470;-67
2021/05/03 12:17:36;;;;;;;2.50;2.03;;;15.10;65.30;;;;;;4991470;28;20507;-67
2021/05/03 12:20:09;;;;;;;2.80;2.60;;;15.40;66.60;;;;;;4991017;28;20490;-67
2021/05/03 12:22:36;;;;;;;3.50;2.77;;;16.60;71.40;;;;;;4991674;28;20516;-68
2021/05/03 12:25:05;;;;;;;2.60;2.40;;;17.80;64.00;;;;;;4991446;28;20465;-68
2021/05/03 12:27:33;;;;;;;2.47;2.17;;;18.20;64.70;;;;;;4991917;28;20508;-68
2021/05/03 12:30:01;;;;;;;2.87;2.60;;;17.80;63.90;;;;;;4990848;28;20532;-67
2021/05/03 12:32:32;;;;;;;2.67;2.47;;;17.30;64.10;;;;;;4990854;28;20465;-68
2021/05/03 12:35:04;;;;;;;2.70;2.50;;;16.80;65.00;;;;;;4990715;28;20961;-68
2021/05/03 12:37:30;;;;;;;2.73;2.50;;;16.20;62.80;;;;;;4991527;28;20470;-67
2021/05/03 12:40:12;;;;;;;2.43;2.20;;;15.50;62.90;;;;;;4991254;28;20494;-68
2021/05/03 12:42:43;;;;;;;3.80;2.43;;;15.10;65.20;;;;;;4991217;28;20667;-67
2021/05/03 12:45:22;;;;;;;4.00;2.60;;;14.80;66.80;;;;;;4990407;28;20477;-68
2021/05/03 12:47:59;;;;;;;2.50;2.30;;;15.00;65.90;;;;;;4990605;28;20466;-68
2021/05/03 12:50:30;;;;;;;2.63;2.43;;;15.80;65.40;;;;;;4990276;28;20552;-68
2021/05/03 12:53:09;;;;;;;4.47;2.17;;;16.40;61.50;;;;;;4990295;28;20954;-67
2021/05/03 12:55:47;;;;;;;2.50;2.30;;;16.10;63.40;;;;;;4990488;28;20462;-68
2021/05/03 12:58:22;;;;;;;3.30;2.60;;;15.30;63.50;;;;;;4990148;28;20588;-67
2021/05/03 13:01:09;;;;;;;3.00;2.37;;;14.70;62.80;;;;;;4991553;28;20675;-68
2021/05/03 13:03:45;;;;;;;2.97;2.40;;;14.40;64.50;;;;;;4991398;28;21107;-68
2021/05/03 13:06:27;;;;;;;2.53;2.20;;;14.40;64.60;;;;;;4990943;28;21085;-68
2021/05/03 13:09:08;;;;;;;2.67;2.47;;;14.60;66.30;;;;;;4991637;28;20462;-67
2021/05/03 13:11:56;;;;;;;2.23;1.83;;;14.70;65.20;;;;;;4990864;28;20469;-67